createdAt,value
2022-07-28T00:00:19.086Z,1008.05
2022-07-28T00:01:20.227Z,1008.08
2022-07-28T00:02:19.161Z,1008.09
2022-07-28T00:03:19.076Z,1008.11
2022-07-28T00:04:19.023Z,1008.11
2022-07-28T00:05:19.008Z,1008.10
2022-07-28T00:06:19.000Z,1008.10
2022-07-28T00:07:19.006Z,1008.09
2022-07-28T00:08:18.998Z,1008.10
2022-07-28T00:09:18.957Z,1008.07
2022-07-28T00:10:18.951Z,1008.11
2022-07-28T00:11:18.942Z,1008.10
2022-07-28T00:12:18.920Z,1008.08
2022-07-28T00:13:18.945Z,1008.11
2022-07-28T00:14:18.890Z,1008.07
2022-07-28T00:15:18.874Z,1008.09
2022-07-28T00:16:18.921Z,1008.08
2022-07-28T00:17:18.851Z,1008.07
2022-07-28T00:18:18.838Z,1008.07
2022-07-28T00:19:18.823Z,1008.00
2022-07-28T00:20:18.843Z,1008.00
2022-07-28T00:21:18.807Z,1008.01
2022-07-28T00:22:18.791Z,1007.97
2022-07-28T00:23:18.775Z,1007.97
2022-07-28T00:24:18.784Z,1007.96
2022-07-28T00:25:18.796Z,1007.96
2022-07-28T00:26:18.738Z,1007.98
2022-07-28T00:27:19.529Z,1007.94
2022-07-28T00:28:18.715Z,1007.94
2022-07-28T00:29:18.693Z,1007.96
2022-07-28T00:30:18.750Z,1007.91
2022-07-28T00:31:18.738Z,1007.95
2022-07-28T00:32:18.721Z,1007.92
2022-07-28T00:33:18.662Z,1007.93
2022-07-28T00:34:18.642Z,1007.98
2022-07-28T00:35:30.276Z,1007.96
2022-07-28T00:36:18.679Z,1007.97
2022-07-28T00:37:18.593Z,1007.94
2022-07-28T00:38:18.587Z,1007.92
2022-07-28T00:39:18.563Z,1007.96
2022-07-28T00:40:18.553Z,1007.96
2022-07-28T00:41:18.537Z,1007.96
2022-07-28T00:42:18.551Z,1007.99
2022-07-28T00:43:18.507Z,1007.97
2022-07-28T00:44:18.533Z,1007.99
2022-07-28T00:45:18.480Z,1007.97
2022-07-28T00:46:18.539Z,1007.98
2022-07-28T00:47:18.461Z,1008.01
2022-07-28T00:48:18.455Z,1007.98
2022-07-28T00:49:18.469Z,1008.00
2022-07-28T00:50:18.449Z,1007.98
2022-07-28T00:51:18.405Z,1007.97
2022-07-28T00:52:18.428Z,1007.96
2022-07-28T00:53:18.381Z,1007.99
2022-07-28T00:54:18.407Z,1008.00
2022-07-28T00:55:18.350Z,1007.99
2022-07-28T00:56:18.425Z,1008.00
2022-07-28T00:57:18.332Z,1008.01
2022-07-28T00:58:18.316Z,1008.01
2022-07-28T00:59:18.296Z,1008.01
2022-07-28T01:00:18.296Z,1007.98
2022-07-28T01:01:18.315Z,1007.99
2022-07-28T01:02:18.342Z,1007.95
2022-07-28T01:03:18.361Z,1007.96
2022-07-28T01:04:18.338Z,1007.94
2022-07-28T01:05:18.241Z,1007.96
2022-07-28T01:06:18.226Z,1007.95
2022-07-28T01:07:18.198Z,1007.96
2022-07-28T01:08:18.188Z,1007.98
2022-07-28T01:09:18.179Z,1007.98
2022-07-28T01:10:18.158Z,1007.98
2022-07-28T01:11:18.170Z,1007.98
2022-07-28T01:12:18.127Z,1008.00
2022-07-28T01:13:18.133Z,1008.02
2022-07-28T01:14:18.425Z,1007.94
2022-07-28T01:15:18.106Z,1007.97
2022-07-28T01:16:18.310Z,1007.92
2022-07-28T01:17:18.062Z,1007.92
2022-07-28T01:18:18.053Z,1007.91
2022-07-28T01:19:18.058Z,1007.94
2022-07-28T01:20:18.019Z,1007.94
2022-07-28T01:21:18.017Z,1007.92
2022-07-28T01:22:17.992Z,1007.96
2022-07-28T01:23:17.980Z,1007.94
2022-07-28T01:24:18.168Z,1007.94
2022-07-28T01:25:17.954Z,1007.96
2022-07-28T01:26:17.937Z,1007.93
2022-07-28T01:27:17.976Z,1007.91
2022-07-28T01:28:17.910Z,1007.92
2022-07-28T01:29:17.896Z,1007.92
2022-07-28T01:30:17.886Z,1007.90
2022-07-28T01:31:17.892Z,1007.91
2022-07-28T01:32:17.855Z,1007.88
2022-07-28T01:33:17.848Z,1007.92
2022-07-28T01:34:17.967Z,1007.89
2022-07-28T01:35:17.812Z,1007.89
2022-07-28T01:36:17.800Z,1007.87
2022-07-28T01:37:17.796Z,1007.85
2022-07-28T01:38:17.780Z,1007.86
2022-07-28T01:39:17.756Z,1007.88
2022-07-28T01:40:17.750Z,1007.84
2022-07-28T01:41:17.755Z,1007.83
2022-07-28T01:42:17.763Z,1007.83
2022-07-28T01:43:17.706Z,1007.83
2022-07-28T01:44:17.857Z,1007.80
2022-07-28T01:45:17.751Z,1007.80
2022-07-28T01:46:17.716Z,1007.80
2022-07-28T01:47:17.645Z,1007.79
2022-07-28T01:48:17.641Z,1007.76
2022-07-28T01:49:17.674Z,1007.73
2022-07-28T01:50:17.722Z,1007.81
2022-07-28T01:51:17.594Z,1007.79
2022-07-28T01:52:17.584Z,1007.80
2022-07-28T01:53:17.572Z,1007.79
2022-07-28T01:54:17.914Z,1007.77
2022-07-28T01:55:17.535Z,1007.79
2022-07-28T01:56:17.553Z,1007.78
2022-07-28T01:57:17.520Z,1007.77
2022-07-28T01:58:17.496Z,1007.78
2022-07-28T01:59:17.478Z,1007.75
2022-07-28T02:00:17.472Z,1007.74
2022-07-28T02:01:17.562Z,1007.78
2022-07-28T02:02:17.500Z,1007.75
2022-07-28T02:03:17.427Z,1007.76
2022-07-28T02:04:17.543Z,1007.70
2022-07-28T02:05:21.017Z,1007.72
2022-07-28T02:06:17.390Z,1007.70
2022-07-28T02:07:17.376Z,1007.64
2022-07-28T02:08:17.364Z,1007.60
2022-07-28T02:09:17.345Z,1007.63
2022-07-28T02:10:17.331Z,1007.62
2022-07-28T02:11:17.343Z,1007.53
2022-07-28T02:12:17.304Z,1007.52
2022-07-28T02:13:17.288Z,1007.58
2022-07-28T02:14:17.821Z,1007.56
2022-07-28T02:15:17.260Z,1007.51
2022-07-28T02:16:17.291Z,1007.55
2022-07-28T02:17:17.230Z,1007.53
2022-07-28T02:18:17.222Z,1007.50
2022-07-28T02:19:17.209Z,1007.48
2022-07-28T02:20:17.208Z,1007.50
2022-07-28T02:21:17.176Z,1007.45
2022-07-28T02:22:17.164Z,1007.51
2022-07-28T02:23:17.151Z,1007.50
2022-07-28T02:24:17.599Z,1007.52
2022-07-28T02:25:17.322Z,1007.52
2022-07-28T02:26:17.926Z,1007.58
2022-07-28T02:27:17.093Z,1007.52
2022-07-28T02:28:17.086Z,1007.48
2022-07-28T02:29:40.392Z,1007.52
2022-07-28T02:30:17.104Z,1007.51
2022-07-28T02:31:17.195Z,1007.52
2022-07-28T02:32:27.511Z,1007.52
2022-07-28T02:33:18.715Z,1007.51
2022-07-28T02:34:17.227Z,1007.55
2022-07-28T02:35:17.039Z,1007.55
2022-07-28T02:36:17.329Z,1007.53
2022-07-28T02:37:17.037Z,1007.52
2022-07-28T02:38:17.248Z,1007.50
2022-07-28T02:39:16.930Z,1007.53
2022-07-28T02:40:16.976Z,1007.56
2022-07-28T02:41:16.919Z,1007.54
2022-07-28T02:42:16.923Z,1007.59
2022-07-28T02:43:16.875Z,1007.57
2022-07-28T02:44:17.354Z,1007.58
2022-07-28T02:45:16.847Z,1007.57
2022-07-28T02:46:16.855Z,1007.59
2022-07-28T02:47:16.860Z,1007.57
2022-07-28T02:48:16.804Z,1007.60
2022-07-28T02:49:16.924Z,1007.58
2022-07-28T02:50:16.825Z,1007.57
2022-07-28T02:51:16.764Z,1007.60
2022-07-28T02:52:16.750Z,1007.59
2022-07-28T02:53:16.833Z,1007.62
2022-07-28T02:54:17.067Z,1007.59
2022-07-28T02:55:16.777Z,1007.61
2022-07-28T02:56:16.698Z,1007.57
2022-07-28T02:57:16.679Z,1007.62
2022-07-28T02:58:16.738Z,1007.60
2022-07-28T02:59:16.652Z,1007.58
2022-07-28T03:00:16.637Z,1007.61
2022-07-28T03:01:16.632Z,1007.59
2022-07-28T03:02:16.605Z,1007.63
2022-07-28T03:03:16.591Z,1007.65
2022-07-28T03:04:17.463Z,1007.65
2022-07-28T03:05:16.690Z,1007.65
2022-07-28T03:06:16.553Z,1007.63
2022-07-28T03:07:16.538Z,1007.65
2022-07-28T03:08:16.524Z,1007.68
2022-07-28T03:09:16.513Z,1007.64
2022-07-28T03:10:16.552Z,1007.66
2022-07-28T03:11:16.485Z,1007.62
2022-07-28T03:12:16.464Z,1007.64
2022-07-28T03:13:16.452Z,1007.66
2022-07-28T03:14:16.746Z,1007.62
2022-07-28T03:15:16.438Z,1007.65
2022-07-28T03:16:16.448Z,1007.68
2022-07-28T03:17:16.481Z,1007.72
2022-07-28T03:18:16.383Z,1007.71
2022-07-28T03:19:16.367Z,1007.75
2022-07-28T03:20:16.365Z,1007.72
2022-07-28T03:21:16.369Z,1007.76
2022-07-28T03:22:16.325Z,1007.75
2022-07-28T03:23:16.313Z,1007.79
2022-07-28T03:24:16.749Z,1007.75
2022-07-28T03:25:16.287Z,1007.79
2022-07-28T03:26:16.299Z,1007.79
2022-07-28T03:27:16.280Z,1007.79
2022-07-28T03:28:16.244Z,1007.80
2022-07-28T03:29:16.282Z,1007.79
2022-07-28T03:30:16.238Z,1007.79
2022-07-28T03:31:16.291Z,1007.78
2022-07-28T03:32:16.188Z,1007.80
2022-07-28T03:33:16.209Z,1007.82
2022-07-28T03:34:16.688Z,1007.80
2022-07-28T03:35:16.140Z,1007.81
2022-07-28T03:36:16.133Z,1007.82
2022-07-28T03:37:16.170Z,1007.78
2022-07-28T03:38:17.759Z,1007.82
2022-07-28T03:39:16.088Z,1007.83
2022-07-28T03:40:16.074Z,1007.85
2022-07-28T03:41:16.065Z,1007.82
2022-07-28T03:42:16.061Z,1007.83
2022-07-28T03:43:16.036Z,1007.80
2022-07-28T03:44:17.685Z,1007.86
2022-07-28T03:45:16.001Z,1007.86
2022-07-28T03:46:16.036Z,1007.84
2022-07-28T03:47:15.974Z,1007.91
2022-07-28T03:48:15.963Z,1007.84
2022-07-28T03:49:15.985Z,1007.91
2022-07-28T03:50:15.956Z,1007.88
2022-07-28T03:51:15.916Z,1007.89
2022-07-28T03:52:15.910Z,1007.88
2022-07-28T03:53:15.960Z,1007.88
2022-07-28T03:54:16.285Z,1007.88
2022-07-28T03:55:15.861Z,1007.89
2022-07-28T03:56:15.867Z,1007.87
2022-07-28T03:57:15.830Z,1007.90
2022-07-28T03:58:15.862Z,1007.92
2022-07-28T03:59:15.868Z,1007.94
2022-07-28T04:00:15.800Z,1007.97
2022-07-28T04:01:15.854Z,1007.96
2022-07-28T04:02:15.839Z,1007.98
2022-07-28T04:03:22.026Z,1007.99
2022-07-28T04:04:16.260Z,1007.98
2022-07-28T04:05:15.727Z,1008.01
2022-07-28T04:06:15.921Z,1008.00
2022-07-28T04:07:15.690Z,1008.02
2022-07-28T04:08:15.686Z,1008.02
2022-07-28T04:09:15.661Z,1008.02
2022-07-28T04:10:15.657Z,1008.04
2022-07-28T04:11:15.653Z,1008.06
2022-07-28T04:12:15.659Z,1007.99
2022-07-28T04:13:15.614Z,1007.98
2022-07-28T04:14:17.088Z,1007.96
2022-07-28T04:15:15.580Z,1008.01
2022-07-28T04:16:15.619Z,1007.96
2022-07-28T04:17:15.556Z,1007.94
2022-07-28T04:18:15.541Z,1007.96
2022-07-28T04:19:15.521Z,1007.90
2022-07-28T04:20:15.505Z,1007.96
2022-07-28T04:21:15.530Z,1007.96
2022-07-28T04:22:15.524Z,1007.94
2022-07-28T04:23:15.466Z,1007.93
2022-07-28T04:24:15.631Z,1007.88
2022-07-28T04:25:15.483Z,1007.90
2022-07-28T04:26:15.418Z,1007.90
2022-07-28T04:27:15.406Z,1007.88
2022-07-28T04:28:15.387Z,1007.85
2022-07-28T04:29:15.385Z,1007.90
2022-07-28T04:30:15.368Z,1007.87
2022-07-28T04:31:15.444Z,1007.87
2022-07-28T04:32:15.333Z,1007.94
2022-07-28T04:33:15.334Z,1007.87
2022-07-28T04:34:15.829Z,1007.86
2022-07-28T04:35:17.500Z,1007.85
2022-07-28T04:36:15.347Z,1007.80
2022-07-28T04:37:15.294Z,1007.81
2022-07-28T04:38:15.265Z,1007.80
2022-07-28T04:39:15.244Z,1007.83
2022-07-28T04:40:15.246Z,1007.81
2022-07-28T04:41:15.219Z,1007.84
2022-07-28T04:42:15.223Z,1007.83
2022-07-28T04:43:15.200Z,1007.80
2022-07-28T04:44:15.724Z,1007.83
2022-07-28T04:45:15.159Z,1007.85
2022-07-28T04:46:15.548Z,1007.86
2022-07-28T04:47:15.150Z,1007.84
2022-07-28T04:48:15.109Z,1007.83
2022-07-28T04:49:15.209Z,1007.83
2022-07-28T04:50:15.076Z,1007.85
2022-07-28T04:51:15.066Z,1007.84
2022-07-28T04:52:15.116Z,1007.88
2022-07-28T04:53:15.040Z,1007.86
2022-07-28T04:54:15.470Z,1007.88
2022-07-28T04:55:15.012Z,1007.84
2022-07-28T04:56:14.994Z,1007.87
2022-07-28T04:57:14.982Z,1007.84
2022-07-28T04:58:14.972Z,1007.87
2022-07-28T04:59:14.957Z,1007.88
2022-07-28T05:00:15.088Z,1007.86
2022-07-28T05:01:14.977Z,1007.79
2022-07-28T05:02:14.944Z,1007.83
2022-07-28T05:03:14.926Z,1007.78
2022-07-28T05:04:15.280Z,1007.81
2022-07-28T05:05:14.961Z,1007.78
2022-07-28T05:06:14.853Z,1007.80
2022-07-28T05:07:14.838Z,1007.79
2022-07-28T05:08:14.877Z,1007.82
2022-07-28T05:09:14.809Z,1007.82
2022-07-28T05:10:14.811Z,1007.83
2022-07-28T05:11:14.796Z,1007.78
2022-07-28T05:12:14.767Z,1007.76
2022-07-28T05:13:14.757Z,1007.77
2022-07-28T05:14:15.136Z,1007.74
2022-07-28T05:15:14.733Z,1007.74
2022-07-28T05:16:14.841Z,1007.80
2022-07-28T05:17:14.699Z,1007.78
2022-07-28T05:18:14.680Z,1007.79
2022-07-28T05:19:14.669Z,1007.79
2022-07-28T05:20:14.659Z,1007.81
2022-07-28T05:21:15.161Z,1007.82
2022-07-28T05:22:14.623Z,1007.84
2022-07-28T05:23:14.633Z,1007.84
2022-07-28T05:24:14.893Z,1007.85
2022-07-28T05:25:14.655Z,1007.83
2022-07-28T05:26:14.566Z,1007.80
2022-07-28T05:27:14.558Z,1007.82
2022-07-28T05:28:14.548Z,1007.85
2022-07-28T05:29:14.526Z,1007.81
2022-07-28T05:30:14.511Z,1007.82
2022-07-28T05:31:14.717Z,1007.84
2022-07-28T05:32:16.627Z,1007.88
2022-07-28T05:33:14.478Z,1007.90
2022-07-28T05:34:15.013Z,1007.90
2022-07-28T05:35:14.439Z,1007.90
2022-07-28T05:36:14.425Z,1007.83
2022-07-28T05:37:14.430Z,1007.84
2022-07-28T05:38:14.396Z,1007.86
2022-07-28T05:39:14.388Z,1007.84
2022-07-28T05:40:14.373Z,1007.87
2022-07-28T05:41:14.355Z,1007.84
2022-07-28T05:42:14.403Z,1007.81
2022-07-28T05:43:14.341Z,1007.85
2022-07-28T05:44:14.834Z,1007.85
2022-07-28T05:45:15.056Z,1007.82
2022-07-28T05:46:14.390Z,1007.85
2022-07-28T05:47:14.275Z,1007.86
2022-07-28T05:48:14.314Z,1007.81
2022-07-28T05:49:14.281Z,1007.84
2022-07-28T05:50:14.230Z,1007.88
2022-07-28T05:51:14.215Z,1007.86
2022-07-28T05:52:14.204Z,1007.89
2022-07-28T05:53:14.188Z,1007.90
2022-07-28T05:54:14.914Z,1007.87
2022-07-28T05:55:14.159Z,1007.93
2022-07-28T05:56:14.143Z,1007.90
2022-07-28T05:57:15.456Z,1007.88
2022-07-28T05:58:14.150Z,1007.91
2022-07-28T05:59:14.104Z,1007.87
2022-07-28T06:00:14.128Z,1007.90
2022-07-28T06:01:14.172Z,1007.92
2022-07-28T06:02:14.118Z,1007.88
2022-07-28T06:03:14.054Z,1007.90
2022-07-28T06:04:26.401Z,1007.93
2022-07-28T06:05:14.065Z,1007.94
2022-07-28T06:06:15.712Z,1007.94
2022-07-28T06:07:14.036Z,1007.91
2022-07-28T06:08:13.981Z,1007.96
2022-07-28T06:09:13.994Z,1007.96
2022-07-28T06:10:13.950Z,1007.96
2022-07-28T06:11:21.981Z,1007.95
2022-07-28T06:12:13.925Z,1007.98
2022-07-28T06:13:13.913Z,1007.93
2022-07-28T06:14:14.275Z,1007.96
2022-07-28T06:15:13.913Z,1007.97
2022-07-28T06:16:13.935Z,1007.97
2022-07-28T06:17:13.862Z,1007.94
2022-07-28T06:18:13.842Z,1008.01
2022-07-28T06:19:13.835Z,1007.93
2022-07-28T06:20:13.848Z,1007.94
2022-07-28T06:21:13.810Z,1008.00
2022-07-28T06:22:13.842Z,1007.97
2022-07-28T06:23:13.809Z,1007.96
2022-07-28T06:24:14.137Z,1007.97
2022-07-28T06:25:13.755Z,1007.99
2022-07-28T06:26:13.777Z,1007.94
2022-07-28T06:27:13.722Z,1007.95
2022-07-28T06:28:13.711Z,1007.95
2022-07-28T06:29:13.709Z,1007.95
2022-07-28T06:30:13.683Z,1007.98
2022-07-28T06:31:13.717Z,1007.99
2022-07-28T06:32:13.684Z,1007.96
2022-07-28T06:33:17.159Z,1007.93
2022-07-28T06:34:13.975Z,1007.90
2022-07-28T06:35:13.630Z,1007.92
2022-07-28T06:36:13.627Z,1007.94
2022-07-28T06:37:13.601Z,1007.92
2022-07-28T06:38:13.585Z,1007.92
2022-07-28T06:39:13.614Z,1007.95
2022-07-28T06:40:13.552Z,1007.95
2022-07-28T06:41:13.538Z,1007.98
2022-07-28T06:42:13.623Z,1008.01
2022-07-28T06:43:13.516Z,1007.98
2022-07-28T06:44:13.791Z,1008.00
2022-07-28T06:45:20.786Z,1008.03
2022-07-28T06:46:13.469Z,1008.05
2022-07-28T06:47:13.533Z,1008.04
2022-07-28T06:48:13.455Z,1008.03
2022-07-28T06:49:13.725Z,1008.06
2022-07-28T06:50:24.834Z,1008.02
2022-07-28T06:51:13.421Z,1008.04
2022-07-28T06:52:13.422Z,1008.06
2022-07-28T06:53:13.383Z,1008.02
2022-07-28T06:54:13.683Z,1008.06
2022-07-28T06:55:13.359Z,1008.03
2022-07-28T06:56:13.855Z,1008.05
2022-07-28T06:57:13.332Z,1008.01
2022-07-28T06:58:13.322Z,1008.03
2022-07-28T06:59:13.672Z,1008.02
2022-07-28T07:00:13.559Z,1008.04
2022-07-28T07:01:13.328Z,1008.02
2022-07-28T07:02:13.292Z,1008.04
2022-07-28T07:03:13.265Z,1008.07
2022-07-28T07:04:13.623Z,1008.06
2022-07-28T07:05:13.229Z,1008.06
2022-07-28T07:06:13.220Z,1008.10
2022-07-28T07:07:17.142Z,1008.08
2022-07-28T07:08:13.191Z,1008.06
2022-07-28T07:09:13.179Z,1008.05
2022-07-28T07:10:13.174Z,1008.02
2022-07-28T07:11:13.182Z,1008.02
2022-07-28T07:12:13.141Z,1008.02
2022-07-28T07:13:13.875Z,1008.00
2022-07-28T07:14:13.514Z,1008.00
2022-07-28T07:15:13.102Z,1008.01
2022-07-28T07:16:13.155Z,1007.98
2022-07-28T07:17:13.122Z,1007.97
2022-07-28T07:18:13.065Z,1008.02
2022-07-28T07:19:15.860Z,1008.00
2022-07-28T07:20:13.039Z,1007.98
2022-07-28T07:21:13.030Z,1008.02
2022-07-28T07:22:13.019Z,1008.01
2022-07-28T07:23:13.005Z,1008.04
2022-07-28T07:24:13.346Z,1008.02
2022-07-28T07:25:12.989Z,1008.02
2022-07-28T07:26:12.968Z,1008.02
2022-07-28T07:27:12.989Z,1008.05
2022-07-28T07:28:12.943Z,1008.02
2022-07-28T07:29:12.990Z,1008.00
2022-07-28T07:30:13.245Z,1008.01
2022-07-28T07:31:12.967Z,1008.02
2022-07-28T07:32:12.939Z,1008.02
2022-07-28T07:33:12.883Z,1008.01
2022-07-28T07:34:13.148Z,1007.98
2022-07-28T07:35:12.862Z,1008.00
2022-07-28T07:36:12.869Z,1008.02
2022-07-28T07:37:12.839Z,1007.95
2022-07-28T07:38:12.816Z,1007.93
2022-07-28T07:39:12.852Z,1007.92
2022-07-28T07:40:12.801Z,1007.94
2022-07-28T07:41:12.814Z,1007.96
2022-07-28T07:42:12.834Z,1007.95
2022-07-28T07:43:12.760Z,1007.96
2022-07-28T07:44:13.028Z,1007.90
2022-07-28T07:45:12.734Z,1007.96
2022-07-28T07:46:12.756Z,1007.94
2022-07-28T07:47:12.712Z,1007.95
2022-07-28T07:48:12.696Z,1007.93
2022-07-28T07:49:12.796Z,1007.92
2022-07-28T07:50:12.671Z,1007.90
2022-07-28T07:51:15.601Z,1007.89
2022-07-28T07:52:12.644Z,1007.89
2022-07-28T07:53:12.659Z,1007.84
2022-07-28T07:54:12.994Z,1007.83
2022-07-28T07:55:12.609Z,1007.82
2022-07-28T07:56:12.591Z,1007.82
2022-07-28T07:57:12.584Z,1007.84
2022-07-28T07:58:12.577Z,1007.81
2022-07-28T07:59:12.596Z,1007.82
2022-07-28T08:00:28.192Z,1007.80
2022-07-28T08:01:12.535Z,1007.79
2022-07-28T08:02:12.660Z,1007.76
2022-07-28T08:03:12.513Z,1007.78
2022-07-28T08:04:12.931Z,1007.72
2022-07-28T08:05:12.605Z,1007.79
2022-07-28T08:06:12.506Z,1007.73
2022-07-28T08:07:12.472Z,1007.76
2022-07-28T08:08:12.451Z,1007.75
2022-07-28T08:09:12.441Z,1007.73
2022-07-28T08:10:12.465Z,1007.79
2022-07-28T08:11:12.442Z,1007.72
2022-07-28T08:12:12.411Z,1007.71
2022-07-28T08:13:12.391Z,1007.74
2022-07-28T08:14:12.721Z,1007.78
2022-07-28T08:15:12.378Z,1007.73
2022-07-28T08:16:12.418Z,1007.79
2022-07-28T08:17:12.355Z,1007.79
2022-07-28T08:18:12.332Z,1007.74
2022-07-28T08:19:12.321Z,1007.74
2022-07-28T08:20:12.322Z,1007.75
2022-07-28T08:21:12.326Z,1007.72
2022-07-28T08:22:12.282Z,1007.75
2022-07-28T08:23:12.294Z,1007.75
2022-07-28T08:24:12.491Z,1007.78
2022-07-28T08:25:12.272Z,1007.73
2022-07-28T08:26:12.310Z,1007.75
2022-07-28T08:27:12.225Z,1007.79
2022-07-28T08:28:12.215Z,1007.77
2022-07-28T08:29:12.201Z,1007.73
2022-07-28T08:30:12.229Z,1007.76
2022-07-28T08:31:12.222Z,1007.69
2022-07-28T08:32:12.225Z,1007.74
2022-07-28T08:33:12.152Z,1007.78
2022-07-28T08:34:28.455Z,1007.79
2022-07-28T08:35:32.481Z,1007.72
2022-07-28T08:36:12.120Z,1007.72
2022-07-28T08:37:12.137Z,1007.71
2022-07-28T08:38:12.125Z,1007.76
2022-07-28T08:39:12.086Z,1007.75
2022-07-28T08:40:12.101Z,1007.70
2022-07-28T08:41:12.180Z,1007.73
2022-07-28T08:42:12.055Z,1007.72
2022-07-28T08:43:12.067Z,1007.77
2022-07-28T08:44:12.334Z,1007.71
2022-07-28T08:45:12.026Z,1007.68
2022-07-28T08:46:12.076Z,1007.63
2022-07-28T08:47:11.994Z,1007.62
2022-07-28T08:48:12.039Z,1007.62
2022-07-28T08:49:12.019Z,1007.63
2022-07-28T08:50:11.957Z,1007.66
2022-07-28T08:51:11.941Z,1007.57
2022-07-28T08:52:11.933Z,1007.58
2022-07-28T08:53:11.919Z,1007.62
2022-07-28T08:54:12.194Z,1007.51
2022-07-28T08:55:15.143Z,1007.50
2022-07-28T08:56:11.916Z,1007.54
2022-07-28T08:57:11.877Z,1007.56
2022-07-28T08:58:11.897Z,1007.53
2022-07-28T08:59:11.857Z,1007.51
2022-07-28T09:00:11.843Z,1007.49
2022-07-28T09:01:11.864Z,1007.54
2022-07-28T09:02:11.863Z,1007.53
2022-07-28T09:03:11.846Z,1007.54
2022-07-28T09:04:12.267Z,1007.52
2022-07-28T09:05:11.822Z,1007.46
2022-07-28T09:06:11.776Z,1007.50
2022-07-28T09:07:11.764Z,1007.48
2022-07-28T09:08:11.762Z,1007.44
2022-07-28T09:09:11.744Z,1007.39
2022-07-28T09:10:11.768Z,1007.35
2022-07-28T09:11:11.778Z,1007.31
2022-07-28T09:12:11.717Z,1007.28
2022-07-28T09:13:13.539Z,1007.26
2022-07-28T09:14:12.044Z,1007.21
2022-07-28T09:15:11.690Z,1007.22
2022-07-28T09:16:11.729Z,1007.22
2022-07-28T09:17:11.670Z,1007.25
2022-07-28T09:18:11.690Z,1007.27
2022-07-28T09:19:11.698Z,1007.24
2022-07-28T09:20:11.799Z,1007.23
2022-07-28T09:21:11.664Z,1007.22
2022-07-28T09:22:11.629Z,1007.22
2022-07-28T09:23:43.058Z,1007.16
2022-07-28T09:24:11.857Z,1007.17
2022-07-28T09:25:11.602Z,1007.15
2022-07-28T09:26:12.563Z,1007.15
2022-07-28T09:27:11.616Z,1007.14
2022-07-28T09:28:11.585Z,1007.10
2022-07-28T09:29:11.576Z,1007.06
2022-07-28T09:30:11.561Z,1007.06
2022-07-28T09:31:11.753Z,1007.07
2022-07-28T09:32:11.573Z,1007.05
2022-07-28T09:33:11.537Z,1007.06
2022-07-28T09:34:11.703Z,1007.08
2022-07-28T09:35:11.524Z,1007.07
2022-07-28T09:36:11.519Z,1007.05
2022-07-28T09:37:11.519Z,1007.02
2022-07-28T09:38:11.603Z,1007.03
2022-07-28T09:39:11.497Z,1007.07
2022-07-28T09:40:11.494Z,1007.05
2022-07-28T09:41:11.491Z,1007.10
2022-07-28T09:42:11.536Z,1007.03
2022-07-28T09:43:11.504Z,1007.06
2022-07-28T09:44:11.715Z,1006.98
2022-07-28T09:45:25.018Z,1007.03
2022-07-28T09:46:11.626Z,1007.02
2022-07-28T09:47:11.675Z,1006.95
2022-07-28T09:48:11.609Z,1007.05
2022-07-28T09:49:11.583Z,1007.01
2022-07-28T09:50:11.437Z,1006.97
2022-07-28T09:51:11.428Z,1006.95
2022-07-28T09:52:11.521Z,1006.91
2022-07-28T09:53:11.450Z,1006.96
2022-07-28T09:54:11.688Z,1006.88
2022-07-28T09:55:11.438Z,1006.90
2022-07-28T09:56:11.419Z,1006.92
2022-07-28T09:57:11.404Z,1006.92
2022-07-28T09:58:11.425Z,1006.91
2022-07-28T09:59:11.627Z,1006.89
2022-07-28T10:00:11.390Z,1006.83
2022-07-28T10:01:11.626Z,1006.85
2022-07-28T10:02:11.434Z,1006.87
2022-07-28T10:03:11.489Z,1006.85
2022-07-28T10:04:11.413Z,1006.78
2022-07-28T10:05:11.367Z,1006.79
2022-07-28T10:06:11.359Z,1006.81
2022-07-28T10:07:11.405Z,1006.81
2022-07-28T10:08:11.359Z,1006.88
2022-07-28T10:09:11.345Z,1006.78
2022-07-28T10:10:11.353Z,1006.83
2022-07-28T10:11:11.346Z,1006.80
2022-07-28T10:12:11.363Z,1006.82
2022-07-28T10:13:11.366Z,1006.81
2022-07-28T10:14:11.520Z,1006.80
2022-07-28T10:15:11.355Z,1006.79
2022-07-28T10:16:11.375Z,1006.71
2022-07-28T10:17:11.318Z,1006.68
2022-07-28T10:18:11.402Z,1006.67
2022-07-28T10:19:11.310Z,1006.70
2022-07-28T10:20:11.307Z,1006.69
2022-07-28T10:21:11.301Z,1006.67
2022-07-28T10:22:11.303Z,1006.65
2022-07-28T10:23:11.303Z,1006.61
2022-07-28T10:24:11.630Z,1006.57
2022-07-28T10:25:11.292Z,1006.59
2022-07-28T10:26:13.088Z,1006.51
2022-07-28T10:27:11.294Z,1006.48
2022-07-28T10:28:11.297Z,1006.49
2022-07-28T10:29:11.314Z,1006.49
2022-07-28T10:30:11.280Z,1006.47
2022-07-28T10:31:11.347Z,1006.47
2022-07-28T10:32:11.280Z,1006.51
2022-07-28T10:33:11.277Z,1006.48
2022-07-28T10:34:16.028Z,1006.46
2022-07-28T10:35:11.289Z,1006.47
2022-07-28T10:36:11.266Z,1006.46
2022-07-28T10:37:11.327Z,1006.35
2022-07-28T10:38:11.350Z,1006.30
2022-07-28T10:39:11.266Z,1006.35
2022-07-28T10:40:11.269Z,1006.39
2022-07-28T10:41:11.278Z,1006.29
2022-07-28T10:42:11.263Z,1006.30
2022-07-28T10:43:11.296Z,1006.23
2022-07-28T10:44:11.365Z,1006.26
2022-07-28T10:45:11.275Z,1006.29
2022-07-28T10:46:15.707Z,1006.25
2022-07-28T10:47:18.160Z,1006.22
2022-07-28T10:48:11.250Z,1006.28
2022-07-28T10:49:11.324Z,1006.30
2022-07-28T10:50:11.269Z,1006.31
2022-07-28T10:51:11.270Z,1006.33
2022-07-28T10:52:30.435Z,1006.27
2022-07-28T10:53:11.238Z,1006.28
2022-07-28T10:54:11.336Z,1006.35
2022-07-28T10:55:11.230Z,1006.39
2022-07-28T10:56:11.230Z,1006.39
2022-07-28T10:57:11.236Z,1006.32
2022-07-28T10:58:12.299Z,1006.35
2022-07-28T10:59:11.211Z,1006.26
2022-07-28T11:00:13.645Z,1006.32
2022-07-28T11:01:26.643Z,1006.38
2022-07-28T11:02:11.317Z,1006.37
2022-07-28T11:03:13.892Z,1006.43
2022-07-28T11:04:11.325Z,1006.40
2022-07-28T11:05:11.250Z,1006.38
2022-07-28T11:06:11.216Z,1006.43
2022-07-28T11:07:11.169Z,1006.39
2022-07-28T11:08:11.164Z,1006.35
2022-07-28T11:09:11.202Z,1006.32
2022-07-28T11:10:11.153Z,1006.30
2022-07-28T11:11:11.177Z,1006.36
2022-07-28T11:12:11.142Z,1006.38
2022-07-28T11:13:14.344Z,1006.39
2022-07-28T11:14:11.297Z,1006.36
2022-07-28T11:15:18.685Z,1006.31
2022-07-28T11:16:11.315Z,1006.33
2022-07-28T11:17:11.371Z,1006.34
2022-07-28T11:18:11.100Z,1006.36
2022-07-28T11:19:36.432Z,1006.34
2022-07-28T11:20:27.561Z,1006.35
2022-07-28T11:21:11.080Z,1006.35
2022-07-28T11:22:11.118Z,1006.32
2022-07-28T11:23:11.063Z,1006.36
2022-07-28T11:24:12.933Z,1006.29
2022-07-28T11:25:18.598Z,1006.28
2022-07-28T11:26:11.070Z,1006.30
2022-07-28T11:27:11.032Z,1006.23
2022-07-28T11:28:11.024Z,1006.22
2022-07-28T11:29:11.227Z,1006.17
2022-07-28T11:30:11.010Z,1006.21
2022-07-28T11:31:11.334Z,1006.18
2022-07-28T11:32:11.052Z,1006.22
2022-07-28T11:33:10.986Z,1006.18
2022-07-28T11:34:11.178Z,1006.15
2022-07-28T11:35:10.985Z,1006.08
2022-07-28T11:36:10.962Z,1006.03
2022-07-28T11:37:15.281Z,1006.04
2022-07-28T11:38:11.563Z,1006.00
2022-07-28T11:39:10.961Z,1006.03
2022-07-28T11:40:10.935Z,1006.11
2022-07-28T11:41:10.932Z,1006.04
2022-07-28T11:42:10.936Z,1005.98
2022-07-28T11:43:10.917Z,1005.93
2022-07-28T11:44:11.043Z,1005.98
2022-07-28T11:45:10.903Z,1005.94
2022-07-28T11:46:12.033Z,1005.90
2022-07-28T11:47:10.895Z,1005.89
2022-07-28T11:48:10.894Z,1005.89
2022-07-28T11:49:14.888Z,1005.93
2022-07-28T11:50:10.898Z,1005.89
2022-07-28T11:51:10.889Z,1005.91
2022-07-28T11:52:10.899Z,1005.86
2022-07-28T11:53:11.274Z,1005.84
2022-07-28T11:54:12.130Z,1005.82
2022-07-28T11:55:10.910Z,1005.82
2022-07-28T11:56:10.926Z,1005.84
2022-07-28T11:57:10.881Z,1005.76
2022-07-28T11:58:10.926Z,1005.65
2022-07-28T11:59:11.146Z,1005.64
2022-07-28T12:00:10.920Z,1005.71
2022-07-28T12:01:13.346Z,1005.69
2022-07-28T12:02:10.953Z,1005.72
2022-07-28T12:03:10.909Z,1005.77
2022-07-28T12:04:10.926Z,1005.71
2022-07-28T12:05:10.958Z,1005.72